»·PEaware :: EJA220 KBZN-KEGE

EJA220 :: KBZN-KEGE

FLIGHT INFORMATION

Flight Status: Arrived
Operator:
Netjets Aviation
More flights by this operator :: More flights under this callsign
Pilot: Ethan S. (29221)
Aircraft: CANADAIR CL-600 CHALLENGER
(CL60)
More flights by this aircraft type
Origin: KBZN Gallatin
United States
Destination: KEGE Eagle Co Regl
United States
More flights between these airports :: More routes between these airports
Route: BOBKT4 BOY CKW RLG
File this flight plan on PilotEdge
Remarks:
Altitude:
(Current/Filed)
39,000ft
Speed:
(Current/Filed)
465kts
Departed: 27-Nov-23 05:13 PM
Arrived: 27-Nov-23 06:15 PM
Distance/Time
Traveled:
413nm/1:02
Distance/Time
To Go:
Arrived

Flight Plot

Page will automatically refresh every two minutes.

Flight plan parsing failed; only flown route is shown


Map Options




Map Legend


Flown Route
Filed Route
Departure Airport
Arrival Airport
Navaid (VOR, NDB)
Fix

Horizontal Profiles

Position Reports

Time Latitude Longitude Heading Altitude Ground
Speed
27-Nov-23 16:39 45.773161 -111.151911 135 4469ft 0kts
27-Nov-23 16:40 45.773161 -111.151911 135 4469ft 0kts
27-Nov-23 16:41 45.773161 -111.151911 135 4469ft 0kts
27-Nov-23 16:42 45.773161 -111.151911 135 4469ft 0kts
27-Nov-23 16:43 45.773161 -111.151911 135 4469ft 0kts
27-Nov-23 16:44 45.773161 -111.151911 135 4469ft 0kts
27-Nov-23 16:45 45.773161 -111.151911 135 4469ft 0kts
27-Nov-23 16:46 45.773161 -111.151911 135 4469ft 0kts
27-Nov-23 16:47 45.773161 -111.151911 135 4469ft 0kts
27-Nov-23 16:48 45.773161 -111.151911 135 4469ft 0kts
27-Nov-23 16:49 45.773161 -111.151911 135 4469ft 0kts
27-Nov-23 16:50 45.773161 -111.151911 135 4469ft 0kts
27-Nov-23 16:51 45.773161 -111.151911 135 4469ft 0kts
27-Nov-23 16:52 45.773161 -111.151911 135 4469ft 0kts
27-Nov-23 16:53 45.773161 -111.151911 135 4469ft 0kts
27-Nov-23 16:54 45.773161 -111.151911 135 4469ft 0kts
27-Nov-23 16:55 45.773161 -111.151911 135 4469ft 0kts
27-Nov-23 16:56 45.773161 -111.151911 135 4469ft 0kts
27-Nov-23 16:57 45.773161 -111.151911 135 4469ft 0kts
27-Nov-23 16:58 45.773161 -111.151911 135 4469ft 0kts
27-Nov-23 16:59 45.773161 -111.151911 135 4469ft 0kts
27-Nov-23 17:01 45.773161 -111.151911 135 4469ft 0kts
27-Nov-23 17:02 45.773161 -111.151911 135 4469ft 0kts
27-Nov-23 17:03 45.773161 -111.151911 135 4469ft 0kts
27-Nov-23 17:04 45.773161 -111.151911 135 4469ft 0kts
27-Nov-23 17:05 45.773161 -111.151911 135 4469ft 0kts
27-Nov-23 17:06 45.773161 -111.151911 135 4469ft 0kts
27-Nov-23 17:07 45.773161 -111.151911 135 4469ft 0kts
27-Nov-23 17:08 45.773181 -111.151533 12 4468ft 0kts
27-Nov-23 17:09 45.774477 -111.151666 316 4466ft 10kts
27-Nov-23 17:10 45.777081 -111.155282 315 4460ft 10kts
27-Nov-23 17:11 45.780021 -111.159376 315 4455ft 20kts
27-Nov-23 17:12 45.782801 -111.160262 45 4449ft 13kts
27-Nov-23 17:13 45.767031 -111.136878 135 5150ft 187kts
27-Nov-23 17:14 45.719384 -111.068278 137 8090ft 284kts
27-Nov-23 17:15 45.663361 -110.977979 111 11970ft 339kts
27-Nov-23 17:16 45.648244 -110.837216 99 16150ft 380kts
27-Nov-23 17:17 45.571924 -110.729325 147 19837ft 414kts
27-Nov-23 17:18 45.472483 -110.638505 145 23129ft 435kts
27-Nov-23 17:19 45.368105 -110.542119 145 26015ft 455kts
27-Nov-23 17:20 45.260590 -110.442994 145 28445ft 469kts
27-Nov-23 17:21 45.149251 -110.340683 145 30406ft 484kts
27-Nov-23 17:22 45.036110 -110.237416 145 32657ft 479kts
27-Nov-23 17:23 44.926220 -110.133957 136 34621ft 471kts
27-Nov-23 17:24 44.830437 -110.009467 133 36200ft 465kts
27-Nov-23 17:25 44.735536 -109.886290 133 37335ft 466kts
27-Nov-23 17:25 44.655008 -109.782572 133 37652ft 479kts
27-Nov-23 17:27 44.537131 -109.631887 133 37629ft 501kts
27-Nov-23 17:28 44.432263 -109.498754 134 37625ft 508kts
27-Nov-23 17:29 44.327633 -109.366730 134 37723ft 504kts
27-Nov-23 17:30 44.222084 -109.234122 135 37741ft 509kts
27-Nov-23 17:30 44.134265 -109.124483 134 37742ft 510kts
27-Nov-23 17:31 44.028296 -108.992665 134 37725ft 508kts
27-Nov-23 17:32 43.923073 -108.862376 134 37744ft 507kts
27-Nov-23 17:34 43.799485 -108.710252 134 37744ft 508kts
27-Nov-23 17:34 43.711219 -108.602101 134 37769ft 509kts
27-Nov-23 17:35 43.605067 -108.472959 134 37803ft 506kts
27-Nov-23 17:36 43.498263 -108.344999 139 37806ft 510kts
27-Nov-23 17:37 43.369167 -108.261179 161 37847ft 518kts
27-Nov-23 17:39 43.208436 -108.191514 161 37887ft 519kts
27-Nov-23 17:39 43.093019 -108.141863 161 37890ft 519kts
27-Nov-23 17:40 42.954889 -108.082856 161 37880ft 520kts
27-Nov-23 17:41 42.816642 -108.024102 161 37858ft 516kts
27-Nov-23 17:42 42.678921 -107.965853 161 37881ft 517kts
27-Nov-23 17:43 42.541564 -107.908025 161 37898ft 514kts
27-Nov-23 17:44 42.405242 -107.850999 161 37919ft 511kts
27-Nov-23 17:45 42.268728 -107.794068 161 37896ft 510kts
27-Nov-23 17:46 42.133470 -107.737954 162 38066ft 507kts
27-Nov-23 17:47 41.998016 -107.682074 161 38076ft 507kts
27-Nov-23 17:48 41.862866 -107.626392 162 38137ft 506kts
27-Nov-23 17:49 41.729844 -107.564617 153 38142ft 504kts
27-Nov-23 17:50 41.604108 -107.481187 151 38143ft 503kts
27-Nov-23 17:51 41.478461 -107.397589 151 38153ft 502kts
27-Nov-23 17:52 41.352756 -107.314348 153 38157ft 502kts
27-Nov-23 17:53 41.227288 -107.231618 153 38179ft 502kts
27-Nov-23 17:54 41.102860 -107.150012 152 36909ft 486kts
27-Nov-23 17:55 40.983418 -107.072074 150 34595ft 478kts
27-Nov-23 17:56 40.864610 -106.994653 150 32158ft 468kts
27-Nov-23 17:57 40.747496 -106.918607 151 29818ft 471kts
27-Nov-23 17:58 40.631510 -106.843691 152 27502ft 454kts
27-Nov-23 17:59 40.520508 -106.772259 153 25277ft 437kts
27-Nov-23 18:00 40.413048 -106.703373 153 23007ft 419kts
27-Nov-23 18:01 40.310100 -106.637697 153 20832ft 406kts
27-Nov-23 18:02 40.210986 -106.574575 153 18718ft 394kts
27-Nov-23 18:03 40.113943 -106.512953 153 16576ft 382kts
27-Nov-23 18:04 40.019546 -106.454395 162 14257ft 364kts
27-Nov-23 18:05 39.930043 -106.473511 200 13923ft 308kts
27-Nov-23 18:06 39.853362 -106.505512 201 13914ft 282kts
27-Nov-23 18:07 39.778313 -106.537033 200 13747ft 283kts
27-Nov-23 18:08 39.704974 -106.570823 218 12936ft 271kts
27-Nov-23 18:09 39.680867 -106.655708 260 11305ft 253kts
27-Nov-23 18:10 39.669303 -106.733385 259 9795ft 172kts
27-Nov-23 18:11 39.660062 -106.786722 257 8682ft 146kts
27-Nov-23 18:12 39.651427 -106.837232 262 7570ft 143kts
27-Nov-23 18:13 39.645776 -106.888400 262 6824ft 140kts
27-Nov-23 18:14 39.642047 -106.922393 243 6550ft 23kts
27-Nov-23 18:15 39.641020 -106.922434 112 6550ft 0kts
27-Nov-23 18:16 39.641227 -106.919994 81 6550ft 8kts
27-Nov-23 18:17 39.641753 -106.915070 81 6550ft 16kts
27-Nov-23 18:18 39.642158 -106.909337 155 6550ft 11kts
27-Nov-23 18:19 39.641346 -106.909189 261 6550ft 0kts
27-Nov-23 18:20 39.641346 -106.909189 261 6550ft 0kts
27-Nov-23 18:21 39.641346 -106.909189 261 6550ft 0kts
27-Nov-23 18:22 39.641346 -106.909189 261 6550ft 0kts
27-Nov-23 18:23 39.641346 -106.909189 261 6550ft 0kts
27-Nov-23 18:24 39.641346 -106.909189 261 6550ft 0kts
27-Nov-23 18:25 39.641346 -106.909189 261 6550ft 0kts
27-Nov-23 18:26 39.641346 -106.909189 261 6550ft 0kts
27-Nov-23 18:27 39.641346 -106.909189 261 6550ft 0kts

Navigation Log

Ident Type
Flight plan parsing failed, navigation log unavailable